sensor_id;sensor_type;location;lat;lon;timestamp;pressure;altitude;pressure_sealevel;temperature;humidity
75166;BME280;63747;48.042;10.088;2022-10-30T00:00:33;95730.69;;;10.72;72.02
75166;BME280;63747;48.042;10.088;2022-10-30T00:03:34;95727.00;;;10.65;71.93
75166;BME280;63747;48.042;10.088;2022-10-30T00:06:35;95722.00;;;10.61;71.71
75166;BME280;63747;48.042;10.088;2022-10-30T00:09:35;95724.00;;;10.59;71.82
75166;BME280;63747;48.042;10.088;2022-10-30T00:12:36;95715.50;;;10.56;71.60
75166;BME280;63747;48.042;10.088;2022-10-30T00:15:37;95716.97;;;10.50;71.96
75166;BME280;63747;48.042;10.088;2022-10-30T00:18:38;95724.28;;;10.48;72.14
75166;BME280;63747;48.042;10.088;2022-10-30T00:21:41;95724.94;;;10.50;72.27
75166;BME280;63747;48.042;10.088;2022-10-30T00:24:41;95725.28;;;10.47;72.19
75166;BME280;63747;48.042;10.088;2022-10-30T00:27:42;95732.84;;;10.42;72.34
75166;BME280;63747;48.042;10.088;2022-10-30T00:30:43;95728.34;;;10.34;72.67
75166;BME280;63747;48.042;10.088;2022-10-30T00:33:48;95726.22;;;10.38;72.44
75166;BME280;63747;48.042;10.088;2022-10-30T00:36:49;95732.53;;;10.37;72.38
75166;BME280;63747;48.042;10.088;2022-10-30T00:39:50;95726.53;;;10.35;72.37
75166;BME280;63747;48.042;10.088;2022-10-30T00:42:50;95731.63;;;10.28;72.38
75166;BME280;63747;48.042;10.088;2022-10-30T00:45:51;95729.50;;;10.32;72.59
75166;BME280;63747;48.042;10.088;2022-10-30T00:49:11;95722.69;;;10.29;72.41
75166;BME280;63747;48.042;10.088;2022-10-30T00:52:13;95721.56;;;10.32;72.12
75166;BME280;63747;48.042;10.088;2022-10-30T00:55:25;95715.56;;;10.30;71.96
75166;BME280;63747;48.042;10.088;2022-10-30T00:58:31;95716.75;;;10.27;71.76
75166;BME280;63747;48.042;10.088;2022-10-30T01:01:36;95721.00;;;10.20;72.00
75166;BME280;63747;48.042;10.088;2022-10-30T01:04:38;95709.22;;;10.15;72.01
75166;BME280;63747;48.042;10.088;2022-10-30T01:07:40;95708.72;;;10.11;71.92
75166;BME280;63747;48.042;10.088;2022-10-30T01:10:41;95712.03;;;10.13;72.05
75166;BME280;63747;48.042;10.088;2022-10-30T01:13:43;95708.72;;;10.11;71.98
75166;BME280;63747;48.042;10.088;2022-10-30T01:29:54;95712.59;;;9.91;72.37
75166;BME280;63747;48.042;10.088;2022-10-30T01:36:27;95712.25;;;9.94;72.22
75166;BME280;63747;48.042;10.088;2022-10-30T01:39:36;95703.66;;;9.92;72.26
75166;BME280;63747;48.042;10.088;2022-10-30T01:52:54;95702.72;;;9.75;72.87
75166;BME280;63747;48.042;10.088;2022-10-30T01:56:10;95696.91;;;9.71;72.65
75166;BME280;63747;48.042;10.088;2022-10-30T01:59:18;95709.97;;;9.73;72.79
75166;BME280;63747;48.042;10.088;2022-10-30T02:02:22;95699.03;;;9.68;72.65
75166;BME280;63747;48.042;10.088;2022-10-30T02:05:28;95695.56;;;9.67;72.59
75166;BME280;63747;48.042;10.088;2022-10-30T02:08:30;95695.38;;;9.69;72.81
75166;BME280;63747;48.042;10.088;2022-10-30T02:11:32;95686.78;;;9.67;72.81
75166;BME280;63747;48.042;10.088;2022-10-30T02:14:37;95693.72;;;9.68;72.77
75166;BME280;63747;48.042;10.088;2022-10-30T02:17:39;95676.34;;;9.65;72.78
75166;BME280;63747;48.042;10.088;2022-10-30T02:20:40;95685.59;;;9.61;72.98
75166;BME280;63747;48.042;10.088;2022-10-30T02:23:42;95685.06;;;9.58;72.87
75166;BME280;63747;48.042;10.088;2022-10-30T02:26:44;95676.44;;;9.56;73.08
75166;BME280;63747;48.042;10.088;2022-10-30T02:29:45;95683.72;;;9.53;73.05
75166;BME280;63747;48.042;10.088;2022-10-30T02:32:46;95676.94;;;9.51;73.18
75166;BME280;63747;48.042;10.088;2022-10-30T02:35:50;95675.94;;;9.52;73.18
75166;BME280;63747;48.042;10.088;2022-10-30T02:38:53;95670.81;;;9.50;73.41
75166;BME280;63747;48.042;10.088;2022-10-30T02:41:54;95667.47;;;9.48;73.37
75166;BME280;63747;48.042;10.088;2022-10-30T02:44:58;95669.00;;;9.51;73.27
75166;BME280;63747;48.042;10.088;2022-10-30T02:48:00;95672.63;;;9.50;73.23
75166;BME280;63747;48.042;10.088;2022-10-30T02:51:03;95667.16;;;9.51;73.32
75166;BME280;63747;48.042;10.088;2022-10-30T02:54:04;95658.69;;;9.48;72.76
75166;BME280;63747;48.042;10.088;2022-10-30T02:57:05;95661.03;;;9.51;72.82
75166;BME280;63747;48.042;10.088;2022-10-30T03:00:07;95659.22;;;9.51;72.94
75166;BME280;63747;48.042;10.088;2022-10-30T03:03:09;95659.22;;;9.51;73.21
75166;BME280;63747;48.042;10.088;2022-10-30T03:06:14;95657.56;;;9.50;73.28
75166;BME280;63747;48.042;10.088;2022-10-30T03:09:16;95663.53;;;9.52;73.22
75166;BME280;63747;48.042;10.088;2022-10-30T03:12:17;95658.56;;;9.49;73.06
75166;BME280;63747;48.042;10.088;2022-10-30T03:15:18;95668.50;;;9.56;73.35
75166;BME280;63747;48.042;10.088;2022-10-30T03:18:25;95671.69;;;9.59;73.22
75166;BME280;63747;48.042;10.088;2022-10-30T03:21:27;95671.84;;;9.58;73.02
75166;BME280;63747;48.042;10.088;2022-10-30T03:24:28;95675.94;;;9.52;73.03
75166;BME280;63747;48.042;10.088;2022-10-30T03:27:29;95695.25;;;9.44;73.02
75166;BME280;63747;48.042;10.088;2022-10-30T03:30:30;95698.84;;;9.25;73.71
75166;BME280;63747;48.042;10.088;2022-10-30T03:33:32;95692.41;;;9.28;73.99
75166;BME280;63747;48.042;10.088;2022-10-30T03:36:33;95693.38;;;9.37;73.88
75166;BME280;63747;48.042;10.088;2022-10-30T03:39:35;95684.13;;;9.41;73.75
75166;BME280;63747;48.042;10.088;2022-10-30T03:42:39;95687.47;;;9.43;73.75
75166;BME280;63747;48.042;10.088;2022-10-30T03:45:49;95693.25;;;9.46;73.66
75166;BME280;63747;48.042;10.088;2022-10-30T03:48:52;95690.94;;;9.43;73.68
75166;BME280;63747;48.042;10.088;2022-10-30T03:51:53;95696.22;;;9.43;73.57
75166;BME280;63747;48.042;10.088;2022-10-30T03:54:57;95699.00;;;9.42;73.70
75166;BME280;63747;48.042;10.088;2022-10-30T03:57:58;95690.56;;;9.38;73.80
75166;BME280;63747;48.042;10.088;2022-10-30T04:01:04;95692.66;;;9.35;73.92
75166;BME280;63747;48.042;10.088;2022-10-30T04:04:18;95688.53;;;9.32;73.79
75166;BME280;63747;48.042;10.088;2022-10-30T04:07:22;95684.81;;;9.25;73.67
75166;BME280;63747;48.042;10.088;2022-10-30T04:10:25;95674.00;;;9.18;73.73
75166;BME280;63747;48.042;10.088;2022-10-30T04:13:26;95682.59;;;9.20;73.88
75166;BME280;63747;48.042;10.088;2022-10-30T04:16:27;95677.63;;;9.17;73.85
75166;BME280;63747;48.042;10.088;2022-10-30T04:19:28;95674.78;;;9.11;74.04
75166;BME280;63747;48.042;10.088;2022-10-30T04:22:30;95664.81;;;9.05;74.09
75166;BME280;63747;48.042;10.088;2022-10-30T04:25:34;95672.06;;;9.03;74.14
75166;BME280;63747;48.042;10.088;2022-10-30T04:28:47;95673.06;;;9.02;74.11
75166;BME280;63747;48.042;10.088;2022-10-30T04:31:55;95676.97;;;8.97;74.25
75166;BME280;63747;48.042;10.088;2022-10-30T04:34:59;95659.75;;;8.93;74.35
75166;BME280;63747;48.042;10.088;2022-10-30T04:38:12;95662.03;;;8.88;74.43
75166;BME280;63747;48.042;10.088;2022-10-30T04:41:30;95662.84;;;8.89;74.50
75166;BME280;63747;48.042;10.088;2022-10-30T04:44:38;95646.78;;;8.82;74.45
75166;BME280;63747;48.042;10.088;2022-10-30T04:48:06;95658.34;;;8.81;74.56
75166;BME280;63747;48.042;10.088;2022-10-30T04:51:09;95656.81;;;8.79;74.59
75166;BME280;63747;48.042;10.088;2022-10-30T04:54:20;95649.31;;;8.74;74.75
75166;BME280;63747;48.042;10.088;2022-10-30T04:57:27;95646.00;;;8.72;74.70
75166;BME280;63747;48.042;10.088;2022-10-30T05:00:30;95646.00;;;8.72;74.65
75166;BME280;63747;48.042;10.088;2022-10-30T05:03:32;95640.03;;;8.70;74.42
75166;BME280;63747;48.042;10.088;2022-10-30T05:06:33;95635.75;;;8.69;74.48
75166;BME280;63747;48.042;10.088;2022-10-30T05:09:34;95632.78;;;8.72;74.62
75166;BME280;63747;48.042;10.088;2022-10-30T05:16:06;95631.75;;;8.83;74.80
75166;BME280;63747;48.042;10.088;2022-10-30T05:19:09;95640.88;;;8.88;74.63
75166;BME280;63747;48.042;10.088;2022-10-30T05:22:10;95633.47;;;8.92;74.62
75166;BME280;63747;48.042;10.088;2022-10-30T05:25:11;95633.28;;;8.93;74.37
75166;BME280;63747;48.042;10.088;2022-10-30T05:28:12;95633.16;;;8.95;74.17
75166;BME280;63747;48.042;10.088;2022-10-30T05:31:16;95626.69;;;8.89;74.29
75166;BME280;63747;48.042;10.088;2022-10-30T05:34:20;95634.88;;;8.86;74.29
75166;BME280;63747;48.042;10.088;2022-10-30T05:37:23;95632.25;;;8.86;74.41
75166;BME280;63747;48.042;10.088;2022-10-30T05:40:24;95631.75;;;8.83;74.54
75166;BME280;63747;48.042;10.088;2022-10-30T05:43:25;95642.91;;;8.77;74.45
75166;BME280;63747;48.042;10.088;2022-10-30T05:46:26;95647.66;;;8.73;74.35
75166;BME280;63747;48.042;10.088;2022-10-30T05:49:28;95652.94;;;8.73;74.55
75166;BME280;63747;48.042;10.088;2022-10-30T05:52:31;95656.88;;;8.69;74.57
75166;BME280;63747;48.042;10.088;2022-10-30T05:55:42;95652.59;;;8.68;74.61
75166;BME280;63747;48.042;10.088;2022-10-30T05:58:54;95656.34;;;8.65;74.44
75166;BME280;63747;48.042;10.088;2022-10-30T06:01:55;95655.84;;;8.62;74.39
75166;BME280;63747;48.042;10.088;2022-10-30T06:04:57;95664.59;;;8.62;74.61
75166;BME280;63747;48.042;10.088;2022-10-30T06:07:59;95662.47;;;8.66;74.51
75166;BME280;63747;48.042;10.088;2022-10-30T06:11:00;95659.00;;;8.65;74.09
75166;BME280;63747;48.042;10.088;2022-10-30T06:14:13;95658.00;;;8.66;74.04
75166;BME280;63747;48.042;10.088;2022-10-30T06:17:16;95662.78;;;8.63;74.19
75166;BME280;63747;48.042;10.088;2022-10-30T06:20:18;95656.13;;;8.59;74.19
75166;BME280;63747;48.042;10.088;2022-10-30T06:23:29;95649.72;;;8.61;74.39
75166;BME280;63747;48.042;10.088;2022-10-30T06:26:31;95657.50;;;8.63;74.22
75166;BME280;63747;48.042;10.088;2022-10-30T06:29:32;95654.84;;;8.63;73.95
75166;BME280;63747;48.042;10.088;2022-10-30T06:32:33;95653.53;;;8.67;73.84
75166;BME280;63747;48.042;10.088;2022-10-30T06:35:35;95649.78;;;8.69;74.07
75166;BME280;63747;48.042;10.088;2022-10-30T06:38:36;95653.94;;;8.72;73.99
75166;BME280;63747;48.042;10.088;2022-10-30T06:41:39;95645.13;;;8.81;73.93
75166;BME280;63747;48.042;10.088;2022-10-30T06:44:40;95652.41;;;8.87;73.82
75166;BME280;63747;48.042;10.088;2022-10-30T06:47:44;95652.78;;;8.92;73.93
75166;BME280;63747;48.042;10.088;2022-10-30T06:50:45;95655.66;;;8.99;74.01
75166;BME280;63747;48.042;10.088;2022-10-30T06:53:50;95657.25;;;9.10;73.83
75166;BME280;63747;48.042;10.088;2022-10-30T06:56:52;95653.28;;;9.14;74.01
75166;BME280;63747;48.042;10.088;2022-10-30T06:59:53;95652.38;;;9.23;73.73
75166;BME280;63747;48.042;10.088;2022-10-30T07:02:57;95652.47;;;9.31;73.73
75166;BME280;63747;48.042;10.088;2022-10-30T07:05:58;95649.72;;;9.41;73.62
75166;BME280;63747;48.042;10.088;2022-10-30T07:09:01;95659.22;;;9.51;73.57
75166;BME280;63747;48.042;10.088;2022-10-30T07:12:02;95660.75;;;9.62;73.54
75166;BME280;63747;48.042;10.088;2022-10-30T07:15:04;95658.84;;;9.72;73.34
75166;BME280;63747;48.042;10.088;2022-10-30T07:18:04;95660.75;;;9.88;72.92
75166;BME280;63747;48.042;10.088;2022-10-30T07:21:05;95657.38;;;10.04;72.67
75166;BME280;63747;48.042;10.088;2022-10-30T07:24:06;95665.38;;;10.20;72.55
75166;BME280;63747;48.042;10.088;2022-10-30T07:27:07;95669.88;;;10.36;72.30
75166;BME280;63747;48.042;10.088;2022-10-30T07:30:10;95662.97;;;10.43;72.27
75166;BME280;63747;48.042;10.088;2022-10-30T07:33:12;95679.56;;;10.53;72.20
75166;BME280;63747;48.042;10.088;2022-10-30T07:36:14;95688.06;;;10.65;71.71
75166;BME280;63747;48.042;10.088;2022-10-30T07:39:15;95680.63;;;10.77;71.70
75166;BME280;63747;48.042;10.088;2022-10-30T07:42:17;95677.69;;;10.96;71.39
75166;BME280;63747;48.042;10.088;2022-10-30T07:45:18;95671.59;;;11.12;71.35
75166;BME280;63747;48.042;10.088;2022-10-30T07:48:19;95670.41;;;11.31;71.11
75166;BME280;63747;48.042;10.088;2022-10-30T07:51:20;95677.38;;;11.48;70.82
75166;BME280;63747;48.042;10.088;2022-10-30T07:54:21;95671.38;;;11.62;70.62
75166;BME280;63747;48.042;10.088;2022-10-30T07:57:22;95669.84;;;11.76;70.44
75166;BME280;63747;48.042;10.088;2022-10-30T08:00:23;95675.66;;;11.96;70.05
75166;BME280;63747;48.042;10.088;2022-10-30T08:03:47;95679.56;;;12.16;69.68
75166;BME280;63747;48.042;10.088;2022-10-30T08:07:17;95674.03;;;12.34;68.89
75166;BME280;63747;48.042;10.088;2022-10-30T08:13:32;95679.84;;;12.69;67.63
75166;BME280;63747;48.042;10.088;2022-10-30T08:16:33;95685.72;;;12.87;67.09
75166;BME280;63747;48.042;10.088;2022-10-30T08:19:34;95677.00;;;13.01;66.72
75166;BME280;63747;48.042;10.088;2022-10-30T08:22:43;95671.75;;;13.16;66.42
75166;BME280;63747;48.042;10.088;2022-10-30T08:25:44;95674.09;;;13.34;66.33
75166;BME280;63747;48.042;10.088;2022-10-30T08:28:46;95682.06;;;13.57;66.05
75166;BME280;63747;48.042;10.088;2022-10-30T08:31:47;95669.31;;;13.67;65.65
75166;BME280;63747;48.042;10.088;2022-10-30T08:34:48;95675.50;;;13.82;65.54
75166;BME280;63747;48.042;10.088;2022-10-30T08:37:49;95680.84;;;13.97;65.72
75166;BME280;63747;48.042;10.088;2022-10-30T08:40:51;95678.47;;;14.17;65.18
75166;BME280;63747;48.042;10.088;2022-10-30T08:43:52;95668.94;;;14.37;64.66
75166;BME280;63747;48.042;10.088;2022-10-30T08:46:53;95673.03;;;14.55;64.62
75166;BME280;63747;48.042;10.088;2022-10-30T08:49:53;95665.19;;;14.68;64.13
75166;BME280;63747;48.042;10.088;2022-10-30T08:52:54;95670.47;;;14.83;64.36
75166;BME280;63747;48.042;10.088;2022-10-30T08:55:55;95669.25;;;15.00;63.56
75166;BME280;63747;48.042;10.088;2022-10-30T08:58:55;95668.56;;;15.13;63.56
75166;BME280;63747;48.042;10.088;2022-10-30T09:01:57;95664.75;;;15.22;63.26
75166;BME280;63747;48.042;10.088;2022-10-30T09:04:58;95669.16;;;15.30;62.96
75166;BME280;63747;48.042;10.088;2022-10-30T09:07:58;95660.56;;;15.34;63.01
75166;BME280;63747;48.042;10.088;2022-10-30T09:10:59;95667.69;;;15.48;62.47
75166;BME280;63747;48.042;10.088;2022-10-30T09:14:00;95677.72;;;15.68;62.38
75166;BME280;63747;48.042;10.088;2022-10-30T09:17:01;95664.50;;;15.88;62.17
75166;BME280;63747;48.042;10.088;2022-10-30T09:20:02;95665.81;;;16.05;62.29
75166;BME280;63747;48.042;10.088;2022-10-30T09:23:03;95668.38;;;16.13;61.80
75166;BME280;63747;48.042;10.088;2022-10-30T09:26:04;95660.13;;;16.15;61.03
75166;BME280;63747;48.042;10.088;2022-10-30T09:29:04;95661.16;;;16.14;61.08
75166;BME280;63747;48.042;10.088;2022-10-30T09:32:06;95666.63;;;16.27;60.98
75166;BME280;63747;48.042;10.088;2022-10-30T09:35:10;95672.91;;;16.47;60.88
75166;BME280;63747;48.042;10.088;2022-10-30T09:38:10;95667.47;;;16.75;60.05
75166;BME280;63747;48.042;10.088;2022-10-30T09:41:17;95663.19;;;17.01;60.45
75166;BME280;63747;48.042;10.088;2022-10-30T09:47:44;95664.09;;;17.28;59.66
75166;BME280;63747;48.042;10.088;2022-10-30T09:50:54;95665.34;;;17.32;59.02
75166;BME280;63747;48.042;10.088;2022-10-30T09:57:48;95666.81;;;17.41;58.97
75166;BME280;63747;48.042;10.088;2022-10-30T10:01:05;95666.63;;;17.36;58.79
75166;BME280;63747;48.042;10.088;2022-10-30T10:04:23;95660.63;;;17.47;59.05
75166;BME280;63747;48.042;10.088;2022-10-30T10:07:36;95669.72;;;17.66;58.57
75166;BME280;63747;48.042;10.088;2022-10-30T10:10:43;95665.16;;;17.66;58.23
75166;BME280;63747;48.042;10.088;2022-10-30T10:13:52;95658.16;;;17.92;58.21
75166;BME280;63747;48.042;10.088;2022-10-30T10:16:55;95663.28;;;18.27;57.78
75166;BME280;63747;48.042;10.088;2022-10-30T10:19:58;95667.28;;;18.62;57.25
75166;BME280;63747;48.042;10.088;2022-10-30T10:23:05;95664.78;;;18.81;56.57
75166;BME280;63747;48.042;10.088;2022-10-30T10:26:42;95661.09;;;19.13;56.69
75166;BME280;63747;48.042;10.088;2022-10-30T10:29:57;95656.16;;;19.42;55.92
75166;BME280;63747;48.042;10.088;2022-10-30T10:33:23;95659.28;;;19.70;55.53
75166;BME280;63747;48.042;10.088;2022-10-30T10:36:45;95655.31;;;19.98;54.48
75166;BME280;63747;48.042;10.088;2022-10-30T10:43:27;95646.66;;;20.39;54.62
75166;BME280;63747;48.042;10.088;2022-10-30T10:47:01;95636.28;;;20.61;54.47
75166;BME280;63747;48.042;10.088;2022-10-30T10:53:21;95639.06;;;20.84;53.84
75166;BME280;63747;48.042;10.088;2022-10-30T10:56:32;95634.38;;;21.10;53.20
75166;BME280;63747;48.042;10.088;2022-10-30T10:59:37;95639.88;;;21.33;53.11
75166;BME280;63747;48.042;10.088;2022-10-30T11:02:48;95638.50;;;21.42;53.35
75166;BME280;63747;48.042;10.088;2022-10-30T11:05:58;95638.91;;;21.69;52.57
75166;BME280;63747;48.042;10.088;2022-10-30T11:09:17;95629.31;;;21.85;53.28
75166;BME280;63747;48.042;10.088;2022-10-30T11:12:25;95628.16;;;22.05;53.17
75166;BME280;63747;48.042;10.088;2022-10-30T11:19:00;95623.09;;;22.43;52.00
75166;BME280;63747;48.042;10.088;2022-10-30T11:22:02;95614.25;;;22.60;51.86
75166;BME280;63747;48.042;10.088;2022-10-30T11:25:21;95613.09;;;22.55;51.46
75166;BME280;63747;48.042;10.088;2022-10-30T11:28:34;95612.22;;;22.78;51.54
75166;BME280;63747;48.042;10.088;2022-10-30T11:31:41;95614.50;;;22.98;50.63
75166;BME280;63747;48.042;10.088;2022-10-30T11:34:42;95612.00;;;22.97;49.99
75166;BME280;63747;48.042;10.088;2022-10-30T11:37:45;95606.16;;;23.17;50.13
75166;BME280;63747;48.042;10.088;2022-10-30T11:40:47;95608.31;;;23.15;48.59
75166;BME280;63747;48.042;10.088;2022-10-30T11:43:50;95612.75;;;23.21;49.23
75166;BME280;63747;48.042;10.088;2022-10-30T11:46:51;95606.72;;;23.30;49.10
75166;BME280;63747;48.042;10.088;2022-10-30T11:50:12;95604.34;;;23.05;49.30
75166;BME280;63747;48.042;10.088;2022-10-30T11:53:23;95599.81;;;22.94;48.88
75166;BME280;63747;48.042;10.088;2022-10-30T11:56:30;95601.97;;;23.09;48.25
75166;BME280;63747;48.042;10.088;2022-10-30T11:59:32;95602.53;;;23.23;48.53
75166;BME280;63747;48.042;10.088;2022-10-30T12:02:40;95593.38;;;23.57;48.78
75166;BME280;63747;48.042;10.088;2022-10-30T12:05:42;95594.53;;;23.61;47.82
75166;BME280;63747;48.042;10.088;2022-10-30T12:09:00;95593.72;;;23.61;46.07
75166;BME280;63747;48.042;10.088;2022-10-30T12:12:09;95588.16;;;23.68;43.68
75166;BME280;63747;48.042;10.088;2022-10-30T12:18:25;95590.09;;;23.55;40.92
75166;BME280;63747;48.042;10.088;2022-10-30T12:21:29;95581.84;;;23.45;40.73
75166;BME280;63747;48.042;10.088;2022-10-30T12:24:33;95589.28;;;23.55;41.45
75166;BME280;63747;48.042;10.088;2022-10-30T12:27:36;95581.22;;;23.43;39.63
75166;BME280;63747;48.042;10.088;2022-10-30T12:30:48;95583.28;;;23.70;39.88
75166;BME280;63747;48.042;10.088;2022-10-30T12:37:18;95577.78;;;24.15;40.43
75166;BME280;63747;48.042;10.088;2022-10-30T12:40:35;95577.97;;;24.08;40.58
75166;BME280;63747;48.042;10.088;2022-10-30T12:43:40;95567.63;;;23.88;40.09
75166;BME280;63747;48.042;10.088;2022-10-30T12:46:50;95560.72;;;23.98;38.11
75166;BME280;63747;48.042;10.088;2022-10-30T12:49:59;95554.97;;;24.11;38.28
75166;BME280;63747;48.042;10.088;2022-10-30T12:56:25;95560.09;;;24.51;36.49
75166;BME280;63747;48.042;10.088;2022-10-30T12:59:42;95560.41;;;24.33;36.21
75166;BME280;63747;48.042;10.088;2022-10-30T13:06:16;95541.38;;;24.50;36.48
75166;BME280;63747;48.042;10.088;2022-10-30T13:09:25;95540.56;;;24.49;36.68
75166;BME280;63747;48.042;10.088;2022-10-30T13:12:47;95538.84;;;24.87;37.05
75166;BME280;63747;48.042;10.088;2022-10-30T13:15:53;95539.41;;;24.89;36.33
75166;BME280;63747;48.042;10.088;2022-10-30T13:19:01;95544.28;;;24.87;38.09
75166;BME280;63747;48.042;10.088;2022-10-30T13:22:29;95537.75;;;24.61;37.72
75166;BME280;63747;48.042;10.088;2022-10-30T13:25:38;95536.97;;;24.65;37.05
75166;BME280;63747;48.042;10.088;2022-10-30T13:28:46;95533.38;;;24.38;37.55
75166;BME280;63747;48.042;10.088;2022-10-30T13:38:44;95527.72;;;24.61;37.38
75166;BME280;63747;48.042;10.088;2022-10-30T13:45:32;95525.22;;;24.38;37.97
75166;BME280;63747;48.042;10.088;2022-10-30T13:48:52;95525.22;;;24.38;37.30
75166;BME280;63747;48.042;10.088;2022-10-30T13:52:05;95526.38;;;24.20;37.46
75166;BME280;63747;48.042;10.088;2022-10-30T13:55:26;95523.16;;;24.01;37.83
75166;BME280;63747;48.042;10.088;2022-10-30T13:58:35;95523.69;;;24.20;38.21
75166;BME280;63747;48.042;10.088;2022-10-30T14:01:46;95522.41;;;24.28;39.66
75166;BME280;63747;48.042;10.088;2022-10-30T14:11:10;95523.56;;;23.76;39.40
75166;BME280;63747;48.042;10.088;2022-10-30T14:17:15;95515.53;;;23.64;39.79
75166;BME280;63747;48.042;10.088;2022-10-30T14:23:34;95519.25;;;24.14;38.11
75166;BME280;63747;48.042;10.088;2022-10-30T14:26:35;95522.53;;;24.16;38.67
75166;BME280;63747;48.042;10.088;2022-10-30T14:29:40;95520.94;;;23.98;38.85
75166;BME280;63747;48.042;10.088;2022-10-30T14:32:47;95520.31;;;23.74;39.88
75166;BME280;63747;48.042;10.088;2022-10-30T14:36:12;95515.75;;;23.58;39.75
75166;BME280;63747;48.042;10.088;2022-10-30T14:45:26;95526.31;;;23.26;42.14
75166;BME280;63747;48.042;10.088;2022-10-30T14:48:42;95533.28;;;23.39;41.84
75166;BME280;63747;48.042;10.088;2022-10-30T14:52:03;95527.53;;;23.35;42.26
75166;BME280;63747;48.042;10.088;2022-10-30T14:58:37;95533.38;;;22.98;41.74
75166;BME280;63747;48.042;10.088;2022-10-30T15:01:56;95524.59;;;22.91;42.40
75166;BME280;63747;48.042;10.088;2022-10-30T15:05:25;95533.19;;;22.60;42.93
75166;BME280;63747;48.042;10.088;2022-10-30T15:09:09;95522.66;;;22.46;43.42
75166;BME280;63747;48.042;10.088;2022-10-30T15:15:35;95524.50;;;22.17;44.29
75166;BME280;63747;48.042;10.088;2022-10-30T15:18:38;95527.56;;;22.09;44.62
75166;BME280;63747;48.042;10.088;2022-10-30T15:21:49;95520.75;;;21.95;45.85
75166;BME280;63747;48.042;10.088;2022-10-30T15:24:50;95523.91;;;21.80;45.96
75166;BME280;63747;48.042;10.088;2022-10-30T15:27:54;95528.25;;;21.46;45.97
75166;BME280;63747;48.042;10.088;2022-10-30T15:31:24;95532.81;;;21.22;46.30
75166;BME280;63747;48.042;10.088;2022-10-30T15:34:28;95542.16;;;21.08;46.87
75166;BME280;63747;48.042;10.088;2022-10-30T15:37:29;95538.69;;;20.89;47.48
75166;BME280;63747;48.042;10.088;2022-10-30T15:40:32;95532.84;;;20.62;48.06
75166;BME280;63747;48.042;10.088;2022-10-30T15:43:36;95535.63;;;20.55;48.17
75166;BME280;63747;48.042;10.088;2022-10-30T15:46:43;95536.97;;;20.46;48.60
75166;BME280;63747;48.042;10.088;2022-10-30T15:49:50;95529.75;;;20.28;49.09
75166;BME280;63747;48.042;10.088;2022-10-30T15:52:53;95533.72;;;20.07;49.60
75166;BME280;63747;48.042;10.088;2022-10-30T15:55:57;95530.78;;;19.91;49.43
75166;BME280;63747;48.042;10.088;2022-10-30T15:59:01;95535.50;;;19.77;49.63
75166;BME280;63747;48.042;10.088;2022-10-30T16:02:19;95540.44;;;19.55;49.59
75166;BME280;63747;48.042;10.088;2022-10-30T16:05:21;95537.09;;;19.35;49.87
75166;BME280;63747;48.042;10.088;2022-10-30T16:08:23;95536.56;;;19.26;50.10
75166;BME280;63747;48.042;10.088;2022-10-30T16:11:24;95552.56;;;19.14;50.65
75166;BME280;63747;48.042;10.088;2022-10-30T16:14:28;95548.16;;;18.95;50.79
75166;BME280;63747;48.042;10.088;2022-10-30T16:17:31;95548.88;;;18.77;51.31
75166;BME280;63747;48.042;10.088;2022-10-30T16:20:34;95550.97;;;18.68;51.24
75166;BME280;63747;48.042;10.088;2022-10-30T16:23:47;95541.34;;;18.54;51.72
75166;BME280;63747;48.042;10.088;2022-10-30T16:27:04;95551.81;;;18.31;52.62
75166;BME280;63747;48.042;10.088;2022-10-30T16:30:11;95546.91;;;18.14;52.75
75166;BME280;63747;48.042;10.088;2022-10-30T16:33:13;95549.41;;;18.09;53.12
75166;BME280;63747;48.042;10.088;2022-10-30T16:36:16;95553.53;;;18.05;53.71
75166;BME280;63747;48.042;10.088;2022-10-30T16:39:18;95557.06;;;17.86;54.26
75166;BME280;63747;48.042;10.088;2022-10-30T16:42:21;95558.38;;;17.63;54.33
75166;BME280;63747;48.042;10.088;2022-10-30T16:48:27;95569.72;;;17.26;54.79
75166;BME280;63747;48.042;10.088;2022-10-30T16:51:33;95567.66;;;17.08;55.76
75166;BME280;63747;48.042;10.088;2022-10-30T16:54:39;95570.91;;;16.90;56.62
75166;BME280;63747;48.042;10.088;2022-10-30T16:57:43;95563.63;;;16.64;57.06
75166;BME280;63747;48.042;10.088;2022-10-30T17:00:51;95565.88;;;16.54;57.68
75166;BME280;63747;48.042;10.088;2022-10-30T17:03:53;95574.75;;;16.61;57.45
75166;BME280;63747;48.042;10.088;2022-10-30T17:07:18;95574.94;;;16.66;57.15
75166;BME280;63747;48.042;10.088;2022-10-30T17:10:35;95580.94;;;16.68;56.95
75166;BME280;63747;48.042;10.088;2022-10-30T17:13:55;95582.13;;;16.59;57.10
75166;BME280;63747;48.042;10.088;2022-10-30T17:16:57;95591.63;;;16.55;57.27
75166;BME280;63747;48.042;10.088;2022-10-30T17:20:24;95588.69;;;16.43;57.08
75166;BME280;63747;48.042;10.088;2022-10-30T17:23:25;95595.22;;;16.27;57.45
75166;BME280;63747;48.042;10.088;2022-10-30T17:26:27;95597.22;;;16.19;57.44
75166;BME280;63747;48.042;10.088;2022-10-30T17:32:43;95599.72;;;15.86;57.90
75166;BME280;63747;48.042;10.088;2022-10-30T17:35:44;95604.13;;;15.72;58.22
75166;BME280;63747;48.042;10.088;2022-10-30T17:38:44;95601.84;;;15.69;58.41
75166;BME280;63747;48.042;10.088;2022-10-30T17:41:45;95605.91;;;15.65;58.24
75166;BME280;63747;48.042;10.088;2022-10-30T17:44:46;95599.66;;;15.51;58.73
75166;BME280;63747;48.042;10.088;2022-10-30T17:47:47;95609.25;;;15.39;58.55
75166;BME280;63747;48.042;10.088;2022-10-30T17:50:48;95615.88;;;15.21;58.97
75166;BME280;63747;48.042;10.088;2022-10-30T17:53:48;95625.84;;;15.13;59.11
75166;BME280;63747;48.042;10.088;2022-10-30T17:56:49;95624.19;;;15.12;59.46
75166;BME280;63747;48.042;10.088;2022-10-30T17:59:50;95626.59;;;15.07;59.48